Time;durP1;ratioP1;P1;durP2;ratioP2;P2;SDS_P1;SDS_P2;PMS_P1;PMS_P2;Temp;Humidity;BMP_temperature;BMP_pressure;BME280_temperature;BME280_humidity;BME280_pressure;Samples;Min_cycle;Max_cycle;Signal;HPM_P1;HPM_P2
2021/07/18 00:00:21;;;;;;;2.85;1.77;;;;;23.60;102407.00;;;;5071664;28;20206;-75
2021/07/18 00:02:49;;;;;;;1.98;1.52;;;;;23.60;102410.00;;;;5070868;28;20202;-75
2021/07/18 00:05:16;;;;;;;3.22;1.88;;;;;23.60;102407.00;;;;5071022;28;20195;-75
2021/07/18 00:07:43;;;;;;;1.65;1.27;;;;;23.60;102409.00;;;;5070983;28;20191;-75
2021/07/18 00:10:13;;;;;;;1.50;1.25;;;;;23.50;102402.00;;;;5071253;28;20206;-75
2021/07/18 00:12:41;;;;;;;3.20;1.55;;;;;23.50;102406.00;;;;5081763;28;20217;-75
2021/07/18 00:15:11;;;;;;;2.47;1.30;;;;;23.50;102409.00;;;;5090468;28;20225;-75
2021/07/18 00:17:39;;;;;;;1.83;1.42;;;;;23.50;102410.00;;;;5090693;28;20667;-75
2021/07/18 00:20:10;;;;;;;2.15;1.45;;;;;23.40;102409.00;;;;5090012;28;20312;-75
2021/07/18 00:22:37;;;;;;;2.03;1.38;;;;;23.40;102399.00;;;;5070647;28;20206;-75
2021/07/18 00:25:06;;;;;;;3.95;1.55;;;;;23.40;102396.00;;;;5078531;28;20225;-75
2021/07/18 00:27:35;;;;;;;5.50;2.13;;;;;23.40;102391.00;;;;5091116;28;20213;-75
2021/07/18 00:30:02;;;;;;;2.15;1.52;;;;;23.40;102390.00;;;;5090045;28;20209;-75
2021/07/18 00:32:29;;;;;;;2.78;1.33;;;;;23.40;102389.00;;;;5090149;28;20241;-75
2021/07/18 00:34:56;;;;;;;2.78;1.50;;;;;23.30;102385.00;;;;5088964;28;20248;-75
2021/07/18 00:37:24;;;;;;;1.75;1.38;;;;;23.30;102385.00;;;;5086688;28;20191;-75
2021/07/18 00:39:51;;;;;;;2.28;2.00;;;;;23.30;102388.00;;;;5070544;28;20218;-75
2021/07/18 00:42:19;;;;;;;2.47;2.00;;;;;23.30;102377.00;;;;5071093;28;20210;-75
2021/07/18 00:44:48;;;;;;;4.10;1.50;;;;;23.30;102383.00;;;;5070536;28;20205;-75
2021/07/18 00:47:15;;;;;;;1.45;1.35;;;;;23.30;102375.00;;;;5071240;28;20214;-75
2021/07/18 00:49:44;;;;;;;2.60;1.75;;;;;23.20;102373.00;;;;5068612;28;20191;-75
2021/07/18 00:52:11;;;;;;;2.10;1.50;;;;;23.20;102383.00;;;;5070408;28;20206;-75
2021/07/18 00:54:39;;;;;;;2.50;1.42;;;;;23.20;102373.00;;;;5069564;28;20659;-75
2021/07/18 00:57:07;;;;;;;1.80;1.42;;;;;23.20;102366.00;;;;5069956;28;20191;-75
2021/07/18 00:59:36;;;;;;;4.80;1.40;;;;;23.20;102370.00;;;;5069911;28;20695;-75
2021/07/18 01:02:05;;;;;;;2.05;1.48;;;;;23.10;102369.00;;;;5070161;28;20203;-75
2021/07/18 01:04:33;;;;;;;2.15;1.70;;;;;23.10;102366.00;;;;5076039;28;20203;-75
2021/07/18 01:07:00;;;;;;;4.22;2.20;;;;;23.10;102363.00;;;;5069875;28;20686;-75
2021/07/18 01:09:27;;;;;;;2.35;1.75;;;;;23.10;102369.00;;;;5070076;28;20207;-75
2021/07/18 01:11:54;;;;;;;3.28;2.00;;;;;23.10;102370.00;;;;5069532;28;20207;-75
2021/07/18 01:14:22;;;;;;;2.08;1.80;;;;;23.10;102359.00;;;;5069459;28;20231;-75
2021/07/18 01:16:49;;;;;;;1.80;1.38;;;;;23.10;102363.00;;;;5069045;28;20210;-75
2021/07/18 01:19:21;;;;;;;2.65;1.73;;;;;23.00;102364.00;;;;5070677;28;20221;-75
2021/07/18 01:21:56;;;;;;;2.83;1.70;;;;;23.00;102360.00;;;;5089902;28;20249;-75
2021/07/18 01:24:23;;;;;;;2.63;1.58;;;;;23.00;102368.00;;;;5077789;28;20202;-75
2021/07/18 01:26:51;;;;;;;2.67;1.52;;;;;23.00;102357.00;;;;5069022;28;20218;-75
2021/07/18 01:29:19;;;;;;;6.28;2.13;;;;;23.00;102363.00;;;;5069786;28;20191;-75
2021/07/18 01:31:46;;;;;;;2.67;1.85;;;;;23.00;102363.00;;;;5080968;28;20206;-75
2021/07/18 01:34:13;;;;;;;1.70;1.60;;;;;23.00;102356.00;;;;5073802;28;20199;-75
2021/07/18 01:36:40;;;;;;;2.33;1.52;;;;;23.00;102357.00;;;;5069636;28;20242;-75
2021/07/18 01:39:10;;;;;;;3.72;1.83;;;;;22.90;102353.00;;;;5088034;28;20225;-75
2021/07/18 01:41:38;;;;;;;2.90;1.70;;;;;22.90;102351.00;;;;5089419;28;20263;-75
2021/07/18 01:44:08;;;;;;;2.08;1.80;;;;;22.90;102352.00;;;;5076665;28;20664;-75
2021/07/18 01:46:36;;;;;;;2.33;1.73;;;;;22.90;102352.00;;;;5069071;28;20195;-75
2021/07/18 01:49:06;;;;;;;3.25;1.75;;;;;22.90;102355.00;;;;5069111;28;20205;-75
2021/07/18 01:51:34;;;;;;;2.33;1.70;;;;;22.90;102358.00;;;;5068716;28;20557;-75
2021/07/18 01:54:02;;;;;;;3.28;2.30;;;;;22.90;102353.00;;;;5074172;28;20205;-75
2021/07/18 01:56:31;;;;;;;3.42;1.40;;;;;22.80;102349.00;;;;5089088;28;20197;-76
2021/07/18 01:58:58;;;;;;;2.72;2.03;;;;;22.80;102354.00;;;;5089049;28;20218;-76
2021/07/18 02:01:28;;;;;;;3.90;2.00;;;;;22.80;102345.00;;;;5089508;28;20205;-75
2021/07/18 02:03:55;;;;;;;3.72;1.80;;;;;22.80;102345.00;;;;5069824;28;20202;-75
2021/07/18 02:06:24;;;;;;;4.60;1.73;;;;;22.80;102354.00;;;;5069510;28;20195;-75
2021/07/18 02:08:52;;;;;;;2.33;2.00;;;;;22.80;102356.00;;;;5069286;28;20199;-75
2021/07/18 02:11:20;;;;;;;2.30;2.05;;;;;22.80;102351.00;;;;5076442;28;20213;-75
2021/07/18 02:13:49;;;;;;;2.35;1.90;;;;;22.70;102348.00;;;;5086962;28;20225;-75
2021/07/18 02:16:17;;;;;;;2.70;2.20;;;;;22.80;102351.00;;;;5088709;28;20190;-75
2021/07/18 02:18:45;;;;;;;5.07;2.15;;;;;22.70;102350.00;;;;5088024;28;20186;-75
2021/07/18 02:21:13;;;;;;;3.20;2.05;;;;;22.70;102348.00;;;;5089218;28;20202;-76
2021/07/18 02:23:40;;;;;;;4.30;2.13;;;;;22.70;102348.00;;;;5079586;28;20641;-75
2021/07/18 02:26:07;;;;;;;2.53;1.92;;;;;22.70;102349.00;;;;5068208;28;20234;-75
2021/07/18 02:28:36;;;;;;;4.35;2.03;;;;;22.70;102348.00;;;;5069011;28;20211;-75
2021/07/18 02:31:05;;;;;;;3.03;2.03;;;;;22.70;102345.00;;;;5088683;28;20600;-75
2021/07/18 02:33:33;;;;;;;2.63;1.73;;;;;22.70;102345.00;;;;5085994;28;20197;-75
2021/07/18 02:36:01;;;;;;;4.05;2.25;;;;;22.70;102342.00;;;;5088400;28;20882;-75
2021/07/18 02:38:29;;;;;;;2.78;2.38;;;;;22.70;102335.00;;;;5077289;28;20199;-75
2021/07/18 02:40:58;;;;;;;3.65;2.17;;;;;22.60;102337.00;;;;5067971;28;20233;-75
2021/07/18 02:43:26;;;;;;;3.25;2.40;;;;;22.60;102335.00;;;;5069246;28;20191;-75
2021/07/18 02:45:53;;;;;;;2.35;1.83;;;;;22.60;102335.00;;;;5068816;28;20289;-76
2021/07/18 02:48:22;;;;;;;3.47;2.05;;;;;22.60;102339.00;;;;5068188;28;20206;-75
2021/07/18 02:50:49;;;;;;;3.38;2.20;;;;;22.60;102335.00;;;;5068291;28;20692;-75
2021/07/18 02:53:16;;;;;;;3.63;2.05;;;;;22.60;102335.00;;;;5072357;28;20198;-75
2021/07/18 02:55:44;;;;;;;3.25;1.83;;;;;22.60;102340.00;;;;5088377;28;20206;-76
2021/07/18 02:58:11;;;;;;;2.38;1.80;;;;;22.60;102334.00;;;;5089057;28;20200;-75
2021/07/18 03:00:38;;;;;;;2.95;1.80;;;;;22.60;102333.00;;;;5087930;28;20226;-75
2021/07/18 03:03:06;;;;;;;2.28;1.95;;;;;22.50;102334.00;;;;5083960;28;20210;-75
2021/07/18 03:05:34;;;;;;;3.47;1.85;;;;;22.50;102338.00;;;;5068015;28;20210;-75
2021/07/18 03:08:02;;;;;;;4.63;2.40;;;;;22.50;102340.00;;;;5067662;28;20210;-75
2021/07/18 03:10:29;;;;;;;2.38;2.08;;;;;22.50;102338.00;;;;5068226;28;20206;-75
2021/07/18 03:12:56;;;;;;;4.45;2.13;;;;;22.50;102339.00;;;;5067688;28;20207;-75
2021/07/18 03:15:23;;;;;;;3.83;1.95;;;;;22.50;102332.00;;;;5072125;28;20226;-75
2021/07/18 03:17:51;;;;;;;2.70;2.00;;;;;22.40;102332.00;;;;5071661;28;20187;-75
2021/07/18 03:20:19;;;;;;;3.65;1.55;;;;;22.40;102332.00;;;;5072805;28;20250;-75
2021/07/18 03:22:50;;;;;;;2.97;2.03;;;;;22.40;102326.00;;;;5071321;28;20199;-76
2021/07/18 03:25:18;;;;;;;2.72;2.00;;;;;22.40;102322.00;;;;5071881;28;20203;-75
2021/07/18 03:27:46;;;;;;;2.75;1.80;;;;;22.40;102322.00;;;;5071273;28;20703;-75
2021/07/18 03:30:16;;;;;;;2.42;1.83;;;;;22.40;102319.00;;;;5071264;28;20722;-75
2021/07/18 03:32:43;;;;;;;3.28;2.13;;;;;22.40;102322.00;;;;5071906;28;20207;-75
2021/07/18 03:35:11;;;;;;;2.65;2.05;;;;;22.40;102323.00;;;;5090908;28;20239;-75
2021/07/18 03:37:39;;;;;;;2.17;1.90;;;;;22.30;102320.00;;;;5089402;28;20696;-75
2021/07/18 03:40:10;;;;;;;3.17;2.25;;;;;22.30;102319.00;;;;5092450;28;20234;-75
2021/07/18 03:42:39;;;;;;;2.28;1.90;;;;;22.30;102316.00;;;;5091442;28;20198;-75
2021/07/18 03:45:07;;;;;;;3.15;2.15;;;;;22.30;102322.00;;;;5090474;28;20202;-75
2021/07/18 03:47:34;;;;;;;2.20;2.00;;;;;22.30;102319.00;;;;5091349;28;20699;-75
2021/07/18 03:50:02;;;;;;;4.45;2.15;;;;;22.30;102315.00;;;;5091648;28;20214;-75
2021/07/18 03:52:29;;;;;;;4.00;1.98;;;;;22.30;102320.00;;;;5090473;28;20198;-75
2021/07/18 03:54:57;;;;;;;3.35;2.47;;;;;22.30;102318.00;;;;5090771;28;20202;-76
2021/07/18 03:57:25;;;;;;;3.50;1.80;;;;;22.30;102319.00;;;;5089807;28;20186;-75
2021/07/18 03:59:52;;;;;;;2.92;2.00;;;;;22.30;102323.00;;;;5071310;28;20223;-75
2021/07/18 04:02:19;;;;;;;2.70;1.67;;;;;22.20;102323.00;;;;5071598;28;20214;-75
2021/07/18 04:04:47;;;;;;;4.32;2.25;;;;;22.20;102322.00;;;;5070923;28;20191;-75
2021/07/18 04:07:14;;;;;;;2.88;2.13;;;;;22.20;102326.00;;;;5071353;28;20695;-75
2021/07/18 04:09:41;;;;;;;3.10;2.15;;;;;22.20;102328.00;;;;5070870;28;20206;-75
2021/07/18 04:12:09;;;;;;;3.13;2.25;;;;;22.20;102327.00;;;;5071858;28;20214;-75
2021/07/18 04:14:37;;;;;;;2.20;2.00;;;;;22.20;102326.00;;;;5071127;28;20222;-75
2021/07/18 04:17:05;;;;;;;4.72;2.05;;;;;22.20;102319.00;;;;5070962;28;20608;-75
2021/07/18 04:19:32;;;;;;;3.25;2.10;;;;;22.20;102329.00;;;;5070547;28;20198;-75
2021/07/18 04:22:00;;;;;;;3.53;2.10;;;;;22.30;102324.00;;;;5071260;28;20210;-75
2021/07/18 04:24:27;;;;;;;2.83;2.53;;;;;22.20;102324.00;;;;5069727;28;20221;-75
2021/07/18 04:26:55;;;;;;;2.92;2.20;;;;;22.30;102322.00;;;;5071545;28;20409;-75
2021/07/18 04:29:22;;;;;;;4.13;2.72;;;;;22.30;102323.00;;;;5078645;28;20194;-75
2021/07/18 04:31:51;;;;;;;3.90;3.10;;;;;22.30;102317.00;;;;5088577;28;20203;-75
2021/07/18 04:34:18;;;;;;;3.75;3.00;;;;;22.30;102314.00;;;;5084274;28;20199;-76
2021/07/18 04:36:46;;;;;;;3.72;2.45;;;;;22.30;102320.00;;;;5089509;28;20312;-75
2021/07/18 04:39:13;;;;;;;3.60;2.35;;;;;22.40;102318.00;;;;5080825;28;20202;-76
2021/07/18 04:41:41;;;;;;;4.03;2.80;;;;;22.40;102315.00;;;;5088354;28;20688;-75
2021/07/18 04:44:08;;;;;;;4.03;2.25;;;;;22.40;102314.00;;;;5088423;28;20198;-75
2021/07/18 04:46:35;;;;;;;2.33;2.13;;;;;22.40;102319.00;;;;5088670;28;20194;-75
2021/07/18 04:49:04;;;;;;;3.30;2.70;;;;;22.50;102327.00;;;;5084638;28;20198;-75
2021/07/18 04:51:32;;;;;;;5.22;2.13;;;;;22.50;102326.00;;;;5085370;28;20750;-75
2021/07/18 04:53:59;;;;;;;2.97;2.25;;;;;22.50;102321.00;;;;5089628;28;20194;-75
2021/07/18 04:56:26;;;;;;;3.40;2.63;;;;;22.60;102318.00;;;;5088430;28;20683;-75
2021/07/18 04:58:53;;;;;;;3.70;2.95;;;;;22.60;102322.00;;;;5088331;28;20194;-75
2021/07/18 05:01:21;;;;;;;5.40;2.60;;;;;22.70;102323.00;;;;5086875;28;20224;-75
2021/07/18 05:03:48;;;;;;;3.40;2.53;;;;;22.70;102332.00;;;;5081404;28;20199;-75
2021/07/18 05:06:16;;;;;;;3.42;2.70;;;;;22.70;102334.00;;;;5087661;28;20190;-75
2021/07/18 05:08:43;;;;;;;3.45;2.65;;;;;22.80;102329.00;;;;5086821;28;20190;-74
2021/07/18 05:11:11;;;;;;;3.90;3.22;;;;;22.80;102329.00;;;;5078001;28;20202;-75
2021/07/18 05:13:38;;;;;;;4.43;3.70;;;;;22.90;102325.00;;;;5084609;28;20580;-75
2021/07/18 05:16:05;;;;;;;4.10;3.22;;;;;22.90;102322.00;;;;5088955;28;20187;-75
2021/07/18 05:18:33;;;;;;;3.30;2.75;;;;;23.00;102318.00;;;;5088537;28;20197;-76
2021/07/18 05:21:00;;;;;;;4.63;2.40;;;;;23.00;102323.00;;;;5083459;28;20595;-76
2021/07/18 05:23:29;;;;;;;3.42;3.08;;;;;23.10;102318.00;;;;5075742;28;20199;-75
2021/07/18 05:25:56;;;;;;;3.28;2.90;;;;;23.10;102312.00;;;;5088799;28;20652;-75
2021/07/18 05:28:23;;;;;;;3.63;2.90;;;;;23.20;102323.00;;;;5088726;28;20198;-75
2021/07/18 05:30:50;;;;;;;4.13;2.97;;;;;23.30;102315.00;;;;5084810;28;20195;-75
2021/07/18 05:33:18;;;;;;;4.28;2.65;;;;;23.30;102319.00;;;;5089273;28;20201;-74
2021/07/18 05:35:45;;;;;;;3.35;2.90;;;;;23.40;102321.00;;;;5087205;28;20229;-75
2021/07/18 05:38:12;;;;;;;3.75;3.22;;;;;23.40;102321.00;;;;5088711;28;20202;-75
2021/07/18 05:40:41;;;;;;;2.70;2.42;;;;;23.50;102324.00;;;;5079623;28;20218;-75
2021/07/18 05:43:08;;;;;;;5.10;2.85;;;;;23.60;102320.00;;;;5084268;28;20683;-75
2021/07/18 05:45:35;;;;;;;3.85;2.55;;;;;23.60;102320.00;;;;5085671;28;20201;-76
2021/07/18 05:48:02;;;;;;;4.70;2.40;;;;;23.70;102324.00;;;;5088729;28;20601;-76
2021/07/18 05:50:30;;;;;;;4.30;2.60;;;;;23.80;102320.00;;;;5087730;28;20675;-76
2021/07/18 05:52:57;;;;;;;3.92;2.25;;;;;23.80;102328.00;;;;5082953;28;20202;-75
2021/07/18 05:55:24;;;;;;;3.15;2.30;;;;;23.90;102327.00;;;;5079258;28;20213;-75
2021/07/18 05:57:53;;;;;;;4.63;2.88;;;;;24.00;102327.00;;;;5087731;28;20194;-76
2021/07/18 06:00:20;;;;;;;4.03;2.58;;;;;24.00;102330.00;;;;5080510;28;20242;-75
2021/07/18 06:02:48;;;;;;;3.53;2.38;;;;;24.10;102321.00;;;;5087941;28;20582;-76
2021/07/18 06:05:15;;;;;;;3.95;2.50;;;;;24.20;102327.00;;;;5083014;28;20195;-76
2021/07/18 06:07:42;;;;;;;2.45;2.20;;;;;24.30;102320.00;;;;5088157;28;20205;-75
2021/07/18 06:10:11;;;;;;;4.97;2.15;;;;;24.30;102328.00;;;;5069935;28;20214;-75
2021/07/18 06:12:38;;;;;;;2.55;2.03;;;;;24.40;102323.00;;;;5072223;28;20220;-76
2021/07/18 06:15:07;;;;;;;2.40;2.20;;;;;24.50;102321.00;;;;5086747;28;20217;-75
2021/07/18 06:17:37;;;;;;;4.13;1.90;;;;;24.60;102326.00;;;;5080736;28;20696;-75
2021/07/18 06:20:07;;;;;;;2.33;1.95;;;;;24.60;102322.00;;;;5068365;28;20203;-75
2021/07/18 06:22:35;;;;;;;4.40;1.77;;;;;24.70;102320.00;;;;5068462;28;20285;-76
2021/07/18 06:25:02;;;;;;;2.63;2.05;;;;;24.80;102317.00;;;;5068173;28;20199;-77
2021/07/18 06:27:30;;;;;;;3.03;1.45;;;;;24.90;102319.00;;;;5076112;28;20195;-77
2021/07/18 06:29:57;;;;;;;2.47;1.95;;;;;25.00;102312.00;;;;5071513;28;20195;-76
2021/07/18 06:32:27;;;;;;;5.45;1.70;;;;;25.00;102322.00;;;;5082765;28;20209;-76
2021/07/18 06:34:54;;;;;;;4.03;2.13;;;;;25.10;102321.00;;;;5073224;28;20229;-78
2021/07/18 06:37:21;;;;;;;2.45;1.98;;;;;25.20;102324.00;;;;5083674;28;20688;-78
2021/07/18 06:39:49;;;;;;;3.22;1.70;;;;;25.30;102326.00;;;;5068691;28;20199;-77
2021/07/18 06:42:18;;;;;;;3.70;1.75;;;;;25.40;102331.00;;;;5068578;28;20219;-77
2021/07/18 06:44:45;;;;;;;2.72;1.65;;;;;25.50;102332.00;;;;5087257;28;20205;-77
2021/07/18 06:47:12;;;;;;;3.95;2.17;;;;;25.60;102337.00;;;;5068641;28;20253;-77
2021/07/18 06:49:41;;;;;;;2.45;1.52;;;;;25.70;102332.00;;;;5071968;28;20206;-77
2021/07/18 06:52:08;;;;;;;1.77;1.38;;;;;25.70;102337.00;;;;5073083;28;20202;-78
2021/07/18 06:54:35;;;;;;;2.10;1.38;;;;;25.80;102328.00;;;;5071793;28;20229;-77
2021/07/18 06:57:03;;;;;;;3.25;1.73;;;;;25.90;102329.00;;;;5071669;28;20599;-78
2021/07/18 06:59:30;;;;;;;1.95;1.60;;;;;26.00;102332.00;;;;5073000;28;20220;-77
2021/07/18 07:01:57;;;;;;;2.65;1.30;;;;;26.10;102334.00;;;;5072365;28;20817;-77
2021/07/18 07:04:24;;;;;;;3.33;1.77;;;;;26.20;102329.00;;;;5076543;28;20190;-77
2021/07/18 07:06:53;;;;;;;4.03;1.95;;;;;26.30;102323.00;;;;5075347;28;20195;-78
2021/07/18 07:09:20;;;;;;;5.72;1.52;;;;;26.40;102333.00;;;;5072378;28;20683;-78
2021/07/18 07:11:47;;;;;;;5.53;1.55;;;;;26.50;102333.00;;;;5079462;28;20201;-78
2021/07/18 07:14:14;;;;;;;1.52;1.23;;;;;26.60;102336.00;;;;5092548;28;20718;-77
2021/07/18 07:16:42;;;;;;;1.77;1.10;;;;;26.70;102331.00;;;;5086073;28;20209;-76
2021/07/18 07:19:10;;;;;;;2.92;1.50;;;;;26.80;102332.00;;;;5084843;28;20191;-77
2021/07/18 07:21:37;;;;;;;1.73;1.17;;;;;26.90;102339.00;;;;5071482;28;20233;-77
2021/07/18 07:24:06;;;;;;;1.35;1.25;;;;;27.00;102329.00;;;;5072331;28;20191;-78
2021/07/18 07:26:34;;;;;;;1.83;1.30;;;;;27.10;102328.00;;;;5070892;28;20680;-77
2021/07/18 07:29:01;;;;;;;3.72;1.20;;;;;27.10;102333.00;;;;5072001;28;20207;-78
2021/07/18 07:31:29;;;;;;;1.75;1.20;;;;;27.20;102334.00;;;;5075157;28;20214;-77
2021/07/18 07:33:56;;;;;;;1.80;1.02;;;;;27.30;102332.00;;;;5076653;28;20205;-77
2021/07/18 07:36:23;;;;;;;2.45;1.23;;;;;27.40;102334.00;;;;5075900;28;20225;-77
2021/07/18 07:38:51;;;;;;;2.05;1.27;;;;;27.50;102336.00;;;;5084313;28;20186;-77
2021/07/18 07:41:19;;;;;;;2.45;1.60;;;;;27.50;102338.00;;;;5081334;28;20225;-77
2021/07/18 07:43:47;;;;;;;2.28;1.40;;;;;27.60;102334.00;;;;5073714;28;20199;-75
2021/07/18 07:46:14;;;;;;;1.70;1.02;;;;;27.80;102338.00;;;;5071483;28;20199;-76
2021/07/18 07:48:41;;;;;;;1.48;0.95;;;;;27.90;102341.00;;;;5070949;28;20202;-74
2021/07/18 07:51:08;;;;;;;1.50;1.10;;;;;28.00;102345.00;;;;5081132;28;20210;-74
2021/07/18 07:53:36;;;;;;;2.70;1.08;;;;;28.10;102342.00;;;;5084593;28;20191;-74
2021/07/18 07:56:03;;;;;;;1.60;0.93;;;;;28.20;102332.00;;;;5070732;28;20191;-74
2021/07/18 07:58:32;;;;;;;2.88;0.90;;;;;28.30;102326.00;;;;5071066;28;20195;-74
2021/07/18 08:00:59;;;;;;;1.65;1.08;;;;;28.40;102323.00;;;;5070541;28;20219;-74
2021/07/18 08:03:27;;;;;;;2.17;1.00;;;;;28.50;102324.00;;;;5071457;28;20606;-74
2021/07/18 08:05:54;;;;;;;1.58;0.90;;;;;28.60;102321.00;;;;5070718;28;20206;-74
2021/07/18 08:08:21;;;;;;;3.28;0.80;;;;;28.70;102327.00;;;;5078367;28;20202;-75
2021/07/18 08:10:48;;;;;;;2.70;1.08;;;;;28.80;102319.00;;;;5087964;28;20197;-76
2021/07/18 08:13:16;;;;;;;1.35;0.82;;;;;28.90;102320.00;;;;5088257;28;20195;-76
2021/07/18 08:15:44;;;;;;;0.95;0.85;;;;;29.00;102320.00;;;;5070475;28;20218;-75
2021/07/18 08:18:12;;;;;;;1.00;0.85;;;;;29.10;102319.00;;;;5071688;28;20198;-75
2021/07/18 08:20:39;;;;;;;1.48;1.05;;;;;29.20;102324.00;;;;5070630;28;20217;-77
2021/07/18 08:23:06;;;;;;;1.77;1.10;;;;;29.30;102327.00;;;;5070039;28;20233;-77
2021/07/18 08:25:33;;;;;;;2.67;1.30;;;;;29.40;102326.00;;;;5071185;28;20206;-77
2021/07/18 08:28:01;;;;;;;1.98;0.80;;;;;29.50;102327.00;;;;5076985;28;20195;-76
2021/07/18 08:30:29;;;;;;;6.95;1.13;;;;;29.60;102329.00;;;;5070968;28;20198;-77
2021/07/18 08:32:58;;;;;;;1.80;0.95;;;;;29.70;102326.00;;;;5089913;28;20202;-75
2021/07/18 08:35:25;;;;;;;1.92;1.00;;;;;29.80;102325.00;;;;5070646;28;20226;-75
2021/07/18 08:37:52;;;;;;;2.85;1.17;;;;;29.90;102324.00;;;;5070455;28;20199;-75
2021/07/18 08:40:19;;;;;;;1.92;1.40;;;;;30.00;102322.00;;;;5071803;28;20199;-75
2021/07/18 08:42:47;;;;;;;1.60;1.00;;;;;30.10;102322.00;;;;5071729;28;20508;-75
2021/07/18 08:45:14;;;;;;;3.95;0.88;;;;;30.20;102321.00;;;;5088119;28;20196;-75
2021/07/18 08:47:42;;;;;;;2.30;1.10;;;;;30.30;102330.00;;;;5087921;28;20221;-75
2021/07/18 08:50:13;;;;;;;2.35;1.23;;;;;30.40;102322.00;;;;5081722;28;20673;-76
2021/07/18 08:52:40;;;;;;;3.70;1.25;;;;;30.50;102324.00;;;;5074654;28;20218;-76
2021/07/18 08:55:09;;;;;;;1.33;1.15;;;;;30.60;102318.00;;;;5075836;28;20206;-75
2021/07/18 08:57:38;;;;;;;2.60;1.23;;;;;30.70;102322.00;;;;5076323;28;20596;-75
2021/07/18 09:00:07;;;;;;;2.67;1.10;;;;;30.70;102315.00;;;;5074962;28;20202;-76
2021/07/18 09:02:35;;;;;;;1.85;1.10;;;;;30.80;102322.00;;;;5086996;28;20225;-75
2021/07/18 09:05:02;;;;;;;1.65;1.13;;;;;30.90;102315.00;;;;5075907;28;20221;-77
2021/07/18 09:07:31;;;;;;;2.40;1.20;;;;;30.90;102328.00;;;;5075436;28;20193;-77
2021/07/18 09:10:06;;;;;;;2.17;1.25;;;;;31.00;102325.00;;;;5071426;28;20197;-76
2021/07/18 09:12:34;;;;;;;1.30;1.00;;;;;31.10;102317.00;;;;5068758;28;20205;-76
2021/07/18 09:15:02;;;;;;;3.58;1.00;;;;;31.20;102316.00;;;;5074196;28;20215;-77
2021/07/18 09:17:35;;;;;;;1.77;1.20;;;;;31.20;102316.00;;;;5063501;28;20211;-77
2021/07/18 09:20:14;;;;;;;1.50;0.98;;;;;31.30;102315.00;;;;5082648;28;20201;-76
2021/07/18 09:22:43;;;;;;;0.88;0.85;;;;;31.40;102309.00;;;;5066124;28;20218;-77
2021/07/18 09:25:11;;;;;;;1.38;1.17;;;;;31.50;102310.00;;;;5076976;28;20203;-77
2021/07/18 09:27:38;;;;;;;1.25;0.95;;;;;31.60;102307.00;;;;5082353;28;20198;-77
2021/07/18 09:30:09;;;;;;;2.40;1.10;;;;;31.70;102310.00;;;;5075392;28;20208;-77
2021/07/18 09:32:38;;;;;;;2.60;1.25;;;;;31.80;102313.00;;;;5072300;28;20197;-77
2021/07/18 09:35:08;;;;;;;1.30;1.02;;;;;31.90;102308.00;;;;5075403;28;20230;-77
2021/07/18 09:37:38;;;;;;;1.10;0.77;;;;;32.10;102307.00;;;;5076171;28;20214;-77
2021/07/18 09:40:09;;;;;;;1.90;1.33;;;;;32.10;102314.00;;;;5081616;28;20600;-77
2021/07/18 09:42:39;;;;;;;2.22;1.08;;;;;32.20;102314.00;;;;5081965;28;20718;-78
2021/07/18 09:45:16;;;;;;;1.30;1.00;;;;;32.20;102314.00;;;;5068922;28;20206;-77
2021/07/18 09:48:01;;;;;;;1.13;1.02;;;;;32.20;102312.00;;;;5080559;28;20575;-77
2021/07/18 09:50:32;;;;;;;2.85;1.02;;;;;32.40;102316.00;;;;5084375;28;20210;-78
2021/07/18 09:53:11;;;;;;;2.88;1.15;;;;;32.40;102308.00;;;;5086688;28;20209;-77
2021/07/18 09:55:54;;;;;;;1.38;1.20;;;;;32.50;102300.00;;;;5075509;28;20193;-77
2021/07/18 09:58:22;;;;;;;1.23;1.00;;;;;32.50;102298.00;;;;5070317;28;20206;-76
2021/07/18 10:00:50;;;;;;;1.73;1.30;;;;;32.60;102300.00;;;;5068081;28;20210;-76
2021/07/18 10:03:22;;;;;;;1.27;1.17;;;;;32.60;102292.00;;;;5069997;28;20222;-78
2021/07/18 10:06:04;;;;;;;1.85;1.20;;;;;32.70;102296.00;;;;5075283;28;20247;-79
2021/07/18 10:08:32;;;;;;;1.10;1.00;;;;;32.80;102297.00;;;;5070599;28;20206;-76
2021/07/18 10:11:01;;;;;;;1.50;1.02;;;;;32.80;102290.00;;;;5068847;28;20207;-76
2021/07/18 10:13:29;;;;;;;1.15;0.98;;;;;32.90;102297.00;;;;5068909;28;20202;-76
2021/07/18 10:15:57;;;;;;;1.20;1.10;;;;;33.00;102305.00;;;;5068540;28;20399;-76
2021/07/18 10:18:25;;;;;;;5.15;1.35;;;;;33.00;102298.00;;;;5068849;28;20252;-76
2021/07/18 10:20:52;;;;;;;1.38;1.27;;;;;33.00;102296.00;;;;5067125;28;20191;-76
2021/07/18 10:23:20;;;;;;;1.30;1.15;;;;;33.00;102304.00;;;;5072488;28;20233;-76
2021/07/18 10:25:47;;;;;;;3.88;1.35;;;;;33.10;102300.00;;;;5087893;28;20215;-76
2021/07/18 10:28:17;;;;;;;1.80;1.40;;;;;33.10;102307.00;;;;5088508;28;20239;-77
2021/07/18 10:30:48;;;;;;;2.40;1.67;;;;;33.10;102307.00;;;;5078795;28;20966;-76
2021/07/18 10:33:19;;;;;;;1.77;1.27;;;;;33.10;102292.00;;;;5073521;28;20194;-78
2021/07/18 10:35:48;;;;;;;1.15;1.05;;;;;33.10;102303.00;;;;5087837;28;20233;-79
2021/07/18 10:38:17;;;;;;;1.98;1.10;;;;;33.10;102294.00;;;;5086076;28;20864;-79
2021/07/18 10:40:49;;;;;;;2.45;1.50;;;;;33.10;102300.00;;;;5094153;28;20682;-80
2021/07/18 10:43:37;;;;;;;1.73;1.10;;;;;33.00;102296.00;;;;5069058;28;20229;-78
2021/07/18 10:46:06;;;;;;;2.25;1.52;;;;;33.10;102291.00;;;;5068523;28;20191;-77
2021/07/18 10:48:47;;;;;;;2.03;1.08;;;;;33.10;102284.00;;;;5074748;28;20206;-76
2021/07/18 10:51:16;;;;;;;1.73;0.95;;;;;33.20;102280.00;;;;5088288;28;20193;-77
2021/07/18 10:53:43;;;;;;;1.98;1.25;;;;;33.20;102284.00;;;;5068059;28;20198;-78
2021/07/18 10:56:11;;;;;;;1.45;1.35;;;;;33.20;102283.00;;;;5068576;28;20200;-77
2021/07/18 10:58:53;;;;;;;1.10;1.00;;;;;33.10;102278.00;;;;5078367;28;20202;-79
2021/07/18 11:01:40;;;;;;;1.35;0.90;;;;;33.10;102281.00;;;;5077838;28;20841;-78
2021/07/18 11:04:41;;;;;;;2.70;1.20;;;;;33.10;102285.00;;;;5079274;28;20202;-78
2021/07/18 11:07:28;;;;;;;1.58;1.38;;;;;33.20;102280.00;;;;5089099;28;20205;-79
2021/07/18 11:09:57;;;;;;;1.60;1.02;;;;;33.30;102279.00;;;;5088146;28;20194;-78
2021/07/18 11:12:26;;;;;;;1.92;1.27;;;;;33.20;102277.00;;;;5082610;28;20205;-79
2021/07/18 11:15:34;;;;;;;2.25;1.45;;;;;33.10;102273.00;;;;5068789;28;20223;-77
2021/07/18 11:18:13;;;;;;;2.08;1.33;;;;;33.20;102267.00;;;;5068768;28;20198;-78
2021/07/18 11:21:03;;;;;;;2.67;1.67;;;;;33.30;102270.00;;;;5067541;28;20275;-78
2021/07/18 11:23:34;;;;;;;1.65;1.38;;;;;33.30;102272.00;;;;5068011;28;20222;-78
2021/07/18 11:26:17;;;;;;;1.15;1.05;;;;;33.10;102267.00;;;;5068599;28;20209;-78
2021/07/18 11:28:50;;;;;;;2.20;1.10;;;;;33.20;102267.00;;;;5068231;28;20277;-78
2021/07/18 11:31:37;;;;;;;1.40;1.00;;;;;33.10;102270.00;;;;5071746;28;20191;-78
2021/07/18 11:34:19;;;;;;;1.42;1.30;;;;;33.20;102271.00;;;;5078293;28;20578;-79
2021/07/18 11:37:02;;;;;;;2.13;1.55;;;;;33.10;102266.00;;;;5085120;28;20222;-78
2021/07/18 11:39:30;;;;;;;2.13;1.45;;;;;33.20;102260.00;;;;5071204;28;20289;-78
2021/07/18 11:42:02;;;;;;;1.55;1.38;;;;;33.20;102261.00;;;;5070873;28;20221;-77
2021/07/18 11:44:31;;;;;;;1.30;1.20;;;;;33.20;102270.00;;;;5071296;28;20198;-79
2021/07/18 11:47:06;;;;;;;1.90;1.52;;;;;33.20;102261.00;;;;5080858;28;20199;-77
2021/07/18 11:49:39;;;;;;;2.00;1.50;;;;;33.20;102260.00;;;;5085457;28;20197;-78
2021/07/18 11:52:07;;;;;;;1.98;1.60;;;;;33.20;102252.00;;;;5076704;28;20198;-77
2021/07/18 11:54:35;;;;;;;1.83;1.45;;;;;33.20;102247.00;;;;5080803;28;20201;-78
2021/07/18 11:57:06;;;;;;;1.50;1.13;;;;;33.20;102250.00;;;;5072227;28;20297;-78
2021/07/18 11:59:34;;;;;;;1.85;1.50;;;;;33.10;102245.00;;;;5076902;28;20273;-78
2021/07/18 12:02:03;;;;;;;1.83;1.30;;;;;33.10;102247.00;;;;5081836;28;20202;-79
2021/07/18 12:04:30;;;;;;;2.30;1.30;;;;;33.10;102253.00;;;;5085084;28;20201;-79
2021/07/18 12:07:00;;;;;;;1.45;1.35;;;;;33.10;102247.00;;;;5084449;28;20839;-78
2021/07/18 12:09:28;;;;;;;1.92;1.30;;;;;33.10;102238.00;;;;5084001;28;20189;-79
2021/07/18 12:11:58;;;;;;;1.35;1.25;;;;;33.10;102238.00;;;;5090734;28;20691;-77
2021/07/18 12:14:32;;;;;;;3.33;1.20;;;;;33.10;102244.00;;;;5089178;28;20210;-76
2021/07/18 12:17:00;;;;;;;1.70;1.55;;;;;33.10;102240.00;;;;5083503;28;21329;-78